createdAt,value
2023-03-17T06:32:17.126Z,99.90
2023-03-17T06:34:46.834Z,99.90
2023-03-17T06:37:14.720Z,99.90
2023-03-17T06:39:42.303Z,99.90
2023-03-17T06:42:09.784Z,99.90
2023-03-17T06:44:38.004Z,99.90
2023-03-17T06:47:05.836Z,99.90
2023-03-17T06:49:33.112Z,99.90
2023-03-17T06:52:00.791Z,99.90
2023-03-17T06:54:29.126Z,99.90
2023-03-17T06:56:56.648Z,99.90
2023-03-17T06:59:24.668Z,99.90
2023-03-17T07:01:52.636Z,99.90
2023-03-17T07:06:58.242Z,99.90
2023-03-17T07:09:26.339Z,99.90
2023-03-17T07:11:55.853Z,99.90
2023-03-17T07:14:27.098Z,99.90
2023-03-17T07:16:55.650Z,99.90
2023-03-17T07:19:25.024Z,99.90
2023-03-17T07:21:57.227Z,99.90
2023-03-17T07:26:53.710Z,99.90
2023-03-17T07:29:22.754Z,99.90
2023-03-17T07:31:51.307Z,99.90
2023-03-17T07:34:18.806Z,99.90
2023-03-17T07:41:42.878Z,99.90
2023-03-17T07:44:11.606Z,99.90
2023-03-17T07:46:39.099Z,99.90
2023-03-17T07:49:07.810Z,99.90
2023-03-17T07:51:35.537Z,99.90
2023-03-17T07:54:06.411Z,99.40
2023-03-17T07:56:33.985Z,95.80
2023-03-17T07:59:01.983Z,94.30
2023-03-17T08:01:41.616Z,93.20
2023-03-17T08:04:10.989Z,93.60
2023-03-17T08:06:52.125Z,91.20
2023-03-17T08:09:22.400Z,92.00
2023-03-17T08:11:50.005Z,91.30
2023-03-17T08:14:17.491Z,93.20
2023-03-17T08:16:47.299Z,93.00
2023-03-17T08:19:14.763Z,91.20
2023-03-17T08:21:42.299Z,92.90
2023-03-17T08:24:11.236Z,91.00
2023-03-17T08:26:41.971Z,91.90
2023-03-17T08:29:10.667Z,90.10
2023-03-17T08:31:38.073Z,89.00
2023-03-17T08:34:09.373Z,90.10
2023-03-17T08:36:38.864Z,86.30
2023-03-17T08:39:06.369Z,85.60
2023-03-17T08:41:35.007Z,85.50
2023-03-17T08:44:02.405Z,84.90
2023-03-17T08:46:32.748Z,86.70
2023-03-17T08:49:02.187Z,85.20
2023-03-17T08:51:35.101Z,84.80
2023-03-17T08:54:03.990Z,87.10
2023-03-17T08:56:32.822Z,85.40
2023-03-17T08:59:05.216Z,84.80
2023-03-17T09:01:37.369Z,85.70
2023-03-17T09:04:09.231Z,80.00
2023-03-17T09:06:48.913Z,84.00
2023-03-17T09:09:24.988Z,77.00
2023-03-17T09:11:54.240Z,74.20
2023-03-17T09:14:27.347Z,72.70
2023-03-17T09:16:59.140Z,77.90
2023-03-17T09:19:30.803Z,79.60
2023-03-17T09:22:01.110Z,72.90
2023-03-17T09:24:32.617Z,71.50
2023-03-17T09:27:02.015Z,69.80
2023-03-17T09:29:32.314Z,69.80
2023-03-17T09:32:01.919Z,70.60
2023-03-17T09:34:30.013Z,67.30
2023-03-17T09:37:00.149Z,64.80
2023-03-17T09:39:28.008Z,66.50
2023-03-17T09:42:08.738Z,64.50
2023-03-17T09:44:49.193Z,65.20
2023-03-17T09:47:17.345Z,65.60
2023-03-17T09:49:55.178Z,62.80
2023-03-17T09:52:28.686Z,62.00
2023-03-17T09:54:58.298Z,63.00
2023-03-17T09:57:36.545Z,62.00
2023-03-17T10:00:15.093Z,62.20
2023-03-17T10:02:43.440Z,62.40
2023-03-17T10:05:13.858Z,62.10
2023-03-17T10:07:45.022Z,63.90
2023-03-17T10:10:18.783Z,65.70
2023-03-17T10:13:06.466Z,66.70
2023-03-17T10:15:44.564Z,68.20
2023-03-17T10:18:14.989Z,69.60
2023-03-17T10:20:59.119Z,69.30
2023-03-17T10:23:30.573Z,76.10
2023-03-17T10:26:02.869Z,77.40
2023-03-17T10:28:36.210Z,70.40
2023-03-17T10:31:30.828Z,70.40
2023-03-17T10:34:05.971Z,71.80
2023-03-17T10:36:42.893Z,72.30
2023-03-17T10:39:17.283Z,71.00
2023-03-17T10:42:01.125Z,71.40
2023-03-17T10:44:40.398Z,71.60
2023-03-17T10:47:25.373Z,71.90
2023-03-17T10:49:57.983Z,71.40
2023-03-17T10:52:32.737Z,77.20
2023-03-17T10:55:09.166Z,70.70
2023-03-17T10:57:39.525Z,78.50
2023-03-17T11:03:34.463Z,71.30
2023-03-17T11:06:20.592Z,78.90
2023-03-17T11:08:56.896Z,71.60
2023-03-17T11:11:27.711Z,72.20
2023-03-17T11:14:09.712Z,79.20
2023-03-17T11:16:42.035Z,73.10
2023-03-17T11:19:19.621Z,72.70
2023-03-17T11:21:56.925Z,79.20
2023-03-17T11:24:33.640Z,72.90
2023-03-17T11:27:42.552Z,73.50
2023-03-17T11:30:34.637Z,81.80
2023-03-17T11:33:28.125Z,75.30
2023-03-17T11:36:03.697Z,74.60
2023-03-17T11:38:36.286Z,77.10
2023-03-17T11:41:05.171Z,75.90
2023-03-17T11:44:11.440Z,82.00
2023-03-17T11:47:04.556Z,73.80
2023-03-17T11:49:39.282Z,74.60
2023-03-17T11:52:10.778Z,74.60
2023-03-17T11:55:17.039Z,75.60
2023-03-17T11:57:49.190Z,77.00
2023-03-17T12:00:46.554Z,76.40
2023-03-17T12:03:43.255Z,86.80
2023-03-17T12:06:21.019Z,78.50
2023-03-17T12:08:59.718Z,87.30
2023-03-17T12:11:30.666Z,78.60
2023-03-17T12:14:20.955Z,79.10
2023-03-17T12:16:54.449Z,79.90
2023-03-17T12:19:45.823Z,81.00
2023-03-17T12:22:17.659Z,81.70
2023-03-17T12:24:55.429Z,84.70
2023-03-17T12:27:28.776Z,83.10
2023-03-17T12:30:05.388Z,83.80
2023-03-17T12:32:47.072Z,83.80
2023-03-17T12:35:34.881Z,90.60
2023-03-17T12:38:23.245Z,84.20
2023-03-17T12:41:15.271Z,83.80
2023-03-17T12:44:04.088Z,83.80
2023-03-17T12:46:34.370Z,83.40
2023-03-17T12:49:25.389Z,84.80
2023-03-17T12:52:26.059Z,90.40
2023-03-17T12:54:54.136Z,84.80
2023-03-17T12:57:27.201Z,83.30
2023-03-17T13:00:05.563Z,84.00
2023-03-17T13:02:38.366Z,84.60
2023-03-17T13:05:10.023Z,84.50
2023-03-17T13:07:51.599Z,84.80
2023-03-17T13:10:40.939Z,84.50
2023-03-17T13:13:20.159Z,84.80
2023-03-17T13:15:49.621Z,85.20
2023-03-17T13:18:19.228Z,84.20
2023-03-17T13:23:18.442Z,83.70
2023-03-17T13:25:55.118Z,83.60
2023-03-17T13:28:40.743Z,84.20
2023-03-17T13:31:29.611Z,84.00
2023-03-17T13:34:03.458Z,84.10
2023-03-17T13:36:39.936Z,84.40
2023-03-17T13:39:25.014Z,84.80
2023-03-17T13:42:19.791Z,84.30
2023-03-17T13:45:16.241Z,84.70
2023-03-17T13:47:44.234Z,85.60
2023-03-17T13:50:32.879Z,84.20
2023-03-17T13:53:04.812Z,83.60
2023-03-17T13:55:37.010Z,83.80
2023-03-17T13:58:11.361Z,84.40
2023-03-17T14:00:42.410Z,83.80
2023-03-17T14:03:39.194Z,83.20
2023-03-17T14:06:08.744Z,84.20
2023-03-17T14:08:38.869Z,84.10
2023-03-17T14:11:20.082Z,85.30
2023-03-17T14:14:15.215Z,84.30
2023-03-17T14:17:12.336Z,85.30
2023-03-17T14:19:41.814Z,85.80
2023-03-17T14:22:24.334Z,84.80
2023-03-17T14:24:54.088Z,85.10
2023-03-17T14:27:24.323Z,84.10
2023-03-17T14:29:52.391Z,84.20
2023-03-17T14:32:23.230Z,84.20
2023-03-17T14:34:58.597Z,84.20
2023-03-17T14:37:28.407Z,85.30
2023-03-17T14:39:59.594Z,86.60
2023-03-17T14:42:30.881Z,84.50
2023-03-17T14:45:04.689Z,84.90
2023-03-17T14:47:39.478Z,84.60
2023-03-17T14:50:34.614Z,85.80
2023-03-17T14:53:02.158Z,85.40
2023-03-17T14:55:38.215Z,86.80
2023-03-17T14:58:17.858Z,86.20
2023-03-17T15:00:46.779Z,86.80
2023-03-17T15:03:21.260Z,84.90
2023-03-17T15:05:50.078Z,84.20
2023-03-17T15:08:41.535Z,84.40
2023-03-17T15:11:17.827Z,84.80
2023-03-17T15:13:45.633Z,84.40
2023-03-17T15:16:21.456Z,85.10
2023-03-17T15:18:55.097Z,85.40
2023-03-17T15:21:27.141Z,84.10
2023-03-17T15:23:54.742Z,85.30
2023-03-17T15:26:28.350Z,94.20
2023-03-17T15:28:57.118Z,93.30
2023-03-17T15:31:28.502Z,93.10
2023-03-17T15:33:57.474Z,93.40
2023-03-17T15:36:32.403Z,94.40
2023-03-17T15:39:01.093Z,88.10
2023-03-17T15:41:28.334Z,87.60
2023-03-17T15:43:55.591Z,93.30
2023-03-17T15:46:27.477Z,93.80
2023-03-17T15:48:55.124Z,93.80
2023-03-17T15:51:22.800Z,87.00
2023-03-17T15:53:49.942Z,95.10
2023-03-17T15:56:20.425Z,94.10
2023-03-17T15:58:49.279Z,91.10
2023-03-17T16:01:17.010Z,95.20
2023-03-17T16:03:47.067Z,89.60
2023-03-17T16:06:22.406Z,89.60
2023-03-17T16:08:50.620Z,95.10
2023-03-17T16:11:22.686Z,96.50
2023-03-17T16:13:49.977Z,95.10
2023-03-17T16:16:21.566Z,94.70
2023-03-17T16:18:51.049Z,94.90
2023-03-17T16:21:19.265Z,95.40
2023-03-17T16:23:48.155Z,95.50
2023-03-17T16:26:16.888Z,95.40
2023-03-17T16:28:46.272Z,95.50
2023-03-17T16:31:24.007Z,90.30
2023-03-17T16:33:52.741Z,90.90
2023-03-17T16:36:21.998Z,91.10
2023-03-17T16:38:49.942Z,97.30
2023-03-17T16:41:23.158Z,92.20
2023-03-17T16:44:01.708Z,93.10
2023-03-17T16:46:35.150Z,93.10
2023-03-17T16:49:04.216Z,94.00
2023-03-17T16:51:31.605Z,99.90
2023-03-17T16:53:59.896Z,95.20
2023-03-17T16:56:27.495Z,99.90
